Terminal Aerodrome Forecast
Issued by NWS Austin/San Antonio, TX

Home | Current Version | Previous Version | Text Only | Print | Product List | Glossary On
Versions: 1 2 3 4 5 6 7 8 9 10 11 12 13 14 15 16 17 18 19 20 21 22 23 24 25 26 27 28 29
672
FTUS44 KEWX 201128
TAFSAT
TAF
KSAT 201128Z 2012/2118 23003KT 1SM -DZ BR OVC002
      TEMPO 2013/2016 1/2SM -DZ FG OVC002
     FM201700 20007KT 5SM BR OVC006
     FM201800 19007KT P6SM BKN015
     FM202100 18007KT P6SM SCT020
     FM210200 15008KT 3SM -DZ BR OVC007
     FM210700 16008KT 1SM -DZ BR OVC003=

USA.gov is the U.S. government's official web portal to all federal, state and local government web resources and services.